Aérodrome :
LOGIN :

S'inscrire | Disclaimer

   EN    FR    IT 

 










Légende :    VFR   VFR Marginal   IFR   IFR Intensif   IFR Très Intensif
Visi : 
Plafond : 
>= 8 km
>= 3000ft
5 à 8 km
1000 à 3000 ft
1500m à 5 km
500 à 1000 ft
800 à 1500m
200 à 500 ft
< 800m
< 200 ft
Symboles :   Orages  Brouillard  Fortes neiges  Fortes précipitations  Vent > 20 kt
SIGMETs :   Divers  Orages  Givrage  Turbulence  Onde Orograph.  Cendres Volcan.






- Altitude de l'aérodrome : 102 ft
- Code IATA : CNG


LFBG - Cognac

DERNIER METAR :
  • 121300Z AUTO 26010KT 9999 ///TCU 13/08 Q1009 TEMPO 4000 -SHRA

METARs EXPIRÉS :
  • 121230Z AUTO 26010KT 9999 FEW034/// OVC054/// ///TCU 12/08 Q1009 TEMPO 4000 -SHRA
  • 121200Z AUTO 27005KT 230V290 9999 FEW039/// BKN056/// BKN068/// ///TCU 12/09 Q1010 TEMPO 4000 -SHRA
  • 121130Z AUTO 26006KT 9999 FEW042 BKN048 OVC060 11/09 Q1010 TEMPO 4000 -SHRA BKN025TCU
  • 121100Z AUTO 27007KT 9999 -RA SCT031 SCT037 BKN044 11/08 Q1011 TEMPO 4000 -SHRA BKN025TCU
  • 121030Z AUTO 25004KT 210V280 9999 FEW045/// BKN058/// ///TCU 12/08 Q1011 TEMPO 4000 -SHRA

TAF TAF LFBG
Valide du 12 à 09h jusqu'au 13 à 09h UTC


120800Z 1209/1309 23005KT 9999 SCT040 SCT060
TEMPO 1209/1219 4000 -SHRA BKN025TCU
BECMG 1222/1224 VRB02KT 2000 BR BKN002
PROB40
TEMPO 1300/1307 0500 FG VV///



MET'MAP, la Météo Aéronautique d'un coup d'oeil ! - Copyright ORBIFLY Décembre 2007 - Disclaimer

ORBIFLY MET'MAP TEAM :

Programmation & Développement : Alexandra Zaïnal
Conception & Développement : Baudouin d'Aumeries
Co-Programmation & Développement : Marc-Olivier Méhu
Soutien technique & logistique : Manuel Goepfert

Contact : metmap@orbifly.com




SOURCES & CREDITS :

   NOAA